Terminal Aerodrome Forecast
Issued by NWS Jackson, KY

Home | Current Version | Previous Version | Text Only | Print | Product List | Glossary On
Versions: 1 2 3 4 5 6 7 8 9 10 11 12 13 14 15 16
000
FTUS43 KJKL 280500
TAFJKL
TAF
KJKL 280525Z 2806/2906 00000KT P6SM FEW060 SCT250
     FM281500 VRB03KT P6SM SCT030 BKN180=

USA.gov is the U.S. government's official web portal to all federal, state and local government web resources and services.